Weather at Jeppesen Ranch Heliport

Public forecast

Using degrees Fahrenheit for public forecast. Weather courtesy of forecast.io.

Closest aviation weather report (METAR) to Jeppesen Ranch Heliport

Closest report is Chandler Municipal Airport, 3.3 nm (6.2 km) NE. Retrieved 2021/06/19 21:47 UTC (34 minutes ago):

KCHD 192147Z 25009KT 10SM SKC 45/06 A2960

Closest aviation forecast (TAF) to Jeppesen Ranch Heliport

Closest forecast is Phoenix-Mesa-Gateway Airport, 11.1 nm (20.6 km) ENE. Retrieved 2021/06/19 18:42 UTC (4 hours ago):

TAF KIWA 191741Z 1918/2018 21008KT P6SM SKC FM191900 25012KT P6SM SKC FM192100 28013G20KT P6SM SKC FM200300 22010KT P6SM SKC FM200800 09005KT P6SM SKC FM201700 21010KT P6SM SKC